sensor_id;sensor_type;location;lat;lon;timestamp;P1;durP1;ratioP1;P2;durP2;ratioP2
40204;SDS011;26963;42.666;23.366;2023-12-29T00:01:56;44.65;;;28.17;;
40204;SDS011;26963;42.666;23.366;2023-12-29T00:04:21;43.45;;;27.25;;
40204;SDS011;26963;42.666;23.366;2023-12-29T00:06:47;44.88;;;27.67;;
40204;SDS011;26963;42.666;23.366;2023-12-29T00:09:16;41.30;;;27.20;;
40204;SDS011;26963;42.666;23.366;2023-12-29T00:11:42;46.33;;;26.77;;
40204;SDS011;26963;42.666;23.366;2023-12-29T00:14:07;45.55;;;26.65;;
40204;SDS011;26963;42.666;23.366;2023-12-29T00:16:33;42.33;;;26.95;;
40204;SDS011;26963;42.666;23.366;2023-12-29T00:18:59;45.45;;;27.65;;
40204;SDS011;26963;42.666;23.366;2023-12-29T00:21:24;43.70;;;26.73;;
40204;SDS011;26963;42.666;23.366;2023-12-29T00:23:50;41.00;;;27.20;;
40204;SDS011;26963;42.666;23.366;2023-12-29T00:26:16;41.70;;;28.02;;
40204;SDS011;26963;42.666;23.366;2023-12-29T00:28:44;41.65;;;27.58;;
40204;SDS011;26963;42.666;23.366;2023-12-29T00:31:14;45.40;;;26.88;;
40204;SDS011;26963;42.666;23.366;2023-12-29T00:36:15;44.00;;;24.17;;
40204;SDS011;26963;42.666;23.366;2023-12-29T00:38:41;43.97;;;27.10;;
40204;SDS011;26963;42.666;23.366;2023-12-29T00:41:07;44.17;;;28.13;;
40204;SDS011;26963;42.666;23.366;2023-12-29T00:43:33;45.35;;;29.65;;
40204;SDS011;26963;42.666;23.366;2023-12-29T00:46:00;45.22;;;27.73;;
40204;SDS011;26963;42.666;23.366;2023-12-29T00:48:30;39.22;;;25.65;;
40204;SDS011;26963;42.666;23.366;2023-12-29T00:50:56;40.83;;;25.02;;
40204;SDS011;26963;42.666;23.366;2023-12-29T00:53:21;39.92;;;24.50;;
40204;SDS011;26963;42.666;23.366;2023-12-29T00:55:47;38.78;;;23.70;;
40204;SDS011;26963;42.666;23.366;2023-12-29T00:58:13;38.70;;;23.73;;
40204;SDS011;26963;42.666;23.366;2023-12-29T01:00:39;38.35;;;24.42;;
40204;SDS011;26963;42.666;23.366;2023-12-29T01:03:04;35.97;;;22.85;;
40204;SDS011;26963;42.666;23.366;2023-12-29T01:05:30;39.30;;;23.70;;
40204;SDS011;26963;42.666;23.366;2023-12-29T01:07:56;36.28;;;22.75;;
40204;SDS011;26963;42.666;23.366;2023-12-29T01:10:21;33.55;;;21.63;;
40204;SDS011;26963;42.666;23.366;2023-12-29T01:12:47;36.95;;;22.35;;
40204;SDS011;26963;42.666;23.366;2023-12-29T01:15:13;40.97;;;23.30;;
40204;SDS011;26963;42.666;23.366;2023-12-29T01:17:38;35.25;;;21.83;;
40204;SDS011;26963;42.666;23.366;2023-12-29T01:20:04;30.08;;;20.83;;
40204;SDS011;26963;42.666;23.366;2023-12-29T01:22:30;38.08;;;24.83;;
40204;SDS011;26963;42.666;23.366;2023-12-29T01:24:58;39.20;;;26.30;;
40204;SDS011;26963;42.666;23.366;2023-12-29T01:27:24;44.50;;;28.05;;
40204;SDS011;26963;42.666;23.366;2023-12-29T01:29:49;44.22;;;28.65;;
40204;SDS011;26963;42.666;23.366;2023-12-29T01:32:15;37.50;;;25.23;;
40204;SDS011;26963;42.666;23.366;2023-12-29T01:34:41;38.35;;;26.50;;
40204;SDS011;26963;42.666;23.366;2023-12-29T01:37:08;34.38;;;22.65;;
40204;SDS011;26963;42.666;23.366;2023-12-29T01:39:33;44.33;;;26.63;;
40204;SDS011;26963;42.666;23.366;2023-12-29T01:42:00;36.53;;;24.58;;
40204;SDS011;26963;42.666;23.366;2023-12-29T01:44:25;39.13;;;23.75;;
40204;SDS011;26963;42.666;23.366;2023-12-29T01:46:53;35.50;;;23.23;;
40204;SDS011;26963;42.666;23.366;2023-12-29T01:49:20;36.55;;;24.20;;
40204;SDS011;26963;42.666;23.366;2023-12-29T01:51:52;37.63;;;24.13;;
40204;SDS011;26963;42.666;23.366;2023-12-29T01:54:20;35.25;;;24.15;;
40204;SDS011;26963;42.666;23.366;2023-12-29T01:56:48;36.05;;;24.27;;
40204;SDS011;26963;42.666;23.366;2023-12-29T01:59:15;35.40;;;24.58;;
40204;SDS011;26963;42.666;23.366;2023-12-29T02:01:41;38.30;;;25.17;;
40204;SDS011;26963;42.666;23.366;2023-12-29T02:04:08;41.28;;;25.38;;
40204;SDS011;26963;42.666;23.366;2023-12-29T02:06:36;40.10;;;26.55;;
40204;SDS011;26963;42.666;23.366;2023-12-29T02:09:04;41.85;;;27.23;;
40204;SDS011;26963;42.666;23.366;2023-12-29T02:11:30;37.45;;;24.95;;
40204;SDS011;26963;42.666;23.366;2023-12-29T02:13:56;31.85;;;23.23;;
40204;SDS011;26963;42.666;23.366;2023-12-29T02:16:28;35.92;;;23.10;;
40204;SDS011;26963;42.666;23.366;2023-12-29T02:18:55;41.00;;;23.25;;
40204;SDS011;26963;42.666;23.366;2023-12-29T02:21:23;31.25;;;20.27;;
40204;SDS011;26963;42.666;23.366;2023-12-29T02:23:50;31.20;;;21.55;;
40204;SDS011;26963;42.666;23.366;2023-12-29T02:26:15;38.35;;;24.02;;
40204;SDS011;26963;42.666;23.366;2023-12-29T02:28:44;37.92;;;25.33;;
40204;SDS011;26963;42.666;23.366;2023-12-29T02:31:17;39.95;;;26.23;;
40204;SDS011;26963;42.666;23.366;2023-12-29T02:33:48;44.25;;;25.48;;
40204;SDS011;26963;42.666;23.366;2023-12-29T02:36:15;39.33;;;23.63;;
40204;SDS011;26963;42.666;23.366;2023-12-29T02:38:42;35.90;;;25.20;;
40204;SDS011;26963;42.666;23.366;2023-12-29T02:41:09;40.53;;;27.85;;
40204;SDS011;26963;42.666;23.366;2023-12-29T02:43:36;43.47;;;29.90;;
40204;SDS011;26963;42.666;23.366;2023-12-29T02:46:01;55.67;;;36.08;;
40204;SDS011;26963;42.666;23.366;2023-12-29T02:48:27;63.05;;;42.80;;
40204;SDS011;26963;42.666;23.366;2023-12-29T02:50:53;79.63;;;52.45;;
40204;SDS011;26963;42.666;23.366;2023-12-29T02:53:18;77.22;;;50.67;;
40204;SDS011;26963;42.666;23.366;2023-12-29T02:55:44;86.10;;;55.50;;
40204;SDS011;26963;42.666;23.366;2023-12-29T02:58:09;81.03;;;53.10;;
40204;SDS011;26963;42.666;23.366;2023-12-29T03:00:35;84.40;;;53.38;;
40204;SDS011;26963;42.666;23.366;2023-12-29T03:03:00;76.75;;;51.28;;
40204;SDS011;26963;42.666;23.366;2023-12-29T03:05:26;74.95;;;50.25;;
40204;SDS011;26963;42.666;23.366;2023-12-29T03:07:51;67.72;;;46.75;;
40204;SDS011;26963;42.666;23.366;2023-12-29T03:10:17;57.08;;;39.47;;
40204;SDS011;26963;42.666;23.366;2023-12-29T03:12:43;58.53;;;41.45;;
40204;SDS011;26963;42.666;23.366;2023-12-29T03:15:08;64.00;;;41.25;;
40204;SDS011;26963;42.666;23.366;2023-12-29T03:17:34;55.00;;;38.63;;
40204;SDS011;26963;42.666;23.366;2023-12-29T03:20:01;53.53;;;37.33;;
40204;SDS011;26963;42.666;23.366;2023-12-29T03:22:27;62.70;;;40.90;;
40204;SDS011;26963;42.666;23.366;2023-12-29T03:24:53;60.30;;;42.45;;
40204;SDS011;26963;42.666;23.366;2023-12-29T03:27:19;61.17;;;39.85;;
40204;SDS011;26963;42.666;23.366;2023-12-29T03:29:44;59.92;;;41.58;;
40204;SDS011;26963;42.666;23.366;2023-12-29T03:32:10;54.92;;;38.70;;
40204;SDS011;26963;42.666;23.366;2023-12-29T03:34:36;57.47;;;39.67;;
40204;SDS011;26963;42.666;23.366;2023-12-29T03:37:02;56.33;;;39.28;;
40204;SDS011;26963;42.666;23.366;2023-12-29T03:39:28;57.55;;;39.47;;
40204;SDS011;26963;42.666;23.366;2023-12-29T03:41:55;61.50;;;41.35;;
40204;SDS011;26963;42.666;23.366;2023-12-29T03:44:20;61.90;;;40.85;;
40204;SDS011;26963;42.666;23.366;2023-12-29T03:46:46;60.60;;;41.40;;
40204;SDS011;26963;42.666;23.366;2023-12-29T03:49:12;60.13;;;41.40;;
40204;SDS011;26963;42.666;23.366;2023-12-29T03:51:37;58.72;;;40.55;;
40204;SDS011;26963;42.666;23.366;2023-12-29T03:54:03;63.75;;;42.03;;
40204;SDS011;26963;42.666;23.366;2023-12-29T03:56:29;57.83;;;40.22;;
40204;SDS011;26963;42.666;23.366;2023-12-29T03:58:54;54.45;;;38.75;;
40204;SDS011;26963;42.666;23.366;2023-12-29T04:01:20;57.78;;;40.80;;
40204;SDS011;26963;42.666;23.366;2023-12-29T04:03:46;65.88;;;41.47;;
40204;SDS011;26963;42.666;23.366;2023-12-29T04:06:11;57.58;;;37.63;;
40204;SDS011;26963;42.666;23.366;2023-12-29T04:08:37;49.53;;;34.17;;
40204;SDS011;26963;42.666;23.366;2023-12-29T04:11:03;47.53;;;32.83;;
40204;SDS011;26963;42.666;23.366;2023-12-29T04:13:30;62.67;;;38.83;;
40204;SDS011;26963;42.666;23.366;2023-12-29T04:15:56;56.28;;;39.22;;
40204;SDS011;26963;42.666;23.366;2023-12-29T04:18:22;57.13;;;38.33;;
40204;SDS011;26963;42.666;23.366;2023-12-29T04:20:48;56.60;;;37.72;;
40204;SDS011;26963;42.666;23.366;2023-12-29T04:23:14;45.15;;;32.25;;
40204;SDS011;26963;42.666;23.366;2023-12-29T04:25:40;59.38;;;34.88;;
40204;SDS011;26963;42.666;23.366;2023-12-29T04:28:06;50.58;;;35.03;;
40204;SDS011;26963;42.666;23.366;2023-12-29T04:30:33;47.33;;;33.03;;
40204;SDS011;26963;42.666;23.366;2023-12-29T04:32:59;47.33;;;34.67;;
40204;SDS011;26963;42.666;23.366;2023-12-29T04:35:25;50.88;;;32.67;;
40204;SDS011;26963;42.666;23.366;2023-12-29T04:37:51;47.15;;;31.60;;
40204;SDS011;26963;42.666;23.366;2023-12-29T04:40:17;45.25;;;32.13;;
40204;SDS011;26963;42.666;23.366;2023-12-29T04:42:43;48.47;;;32.92;;
40204;SDS011;26963;42.666;23.366;2023-12-29T04:45:09;50.75;;;30.85;;
40204;SDS011;26963;42.666;23.366;2023-12-29T04:47:35;41.92;;;29.45;;
40204;SDS011;26963;42.666;23.366;2023-12-29T04:50:01;49.10;;;31.73;;
40204;SDS011;26963;42.666;23.366;2023-12-29T04:52:27;47.08;;;33.25;;
40204;SDS011;26963;42.666;23.366;2023-12-29T04:54:53;42.50;;;29.58;;
40204;SDS011;26963;42.666;23.366;2023-12-29T04:57:18;49.35;;;34.85;;
40204;SDS011;26963;42.666;23.366;2023-12-29T04:59:44;54.50;;;38.75;;
40204;SDS011;26963;42.666;23.366;2023-12-29T05:02:10;41.80;;;30.92;;
40204;SDS011;26963;42.666;23.366;2023-12-29T05:04:35;40.30;;;27.58;;
40204;SDS011;26963;42.666;23.366;2023-12-29T05:07:01;48.60;;;34.20;;
40204;SDS011;26963;42.666;23.366;2023-12-29T05:09:27;53.38;;;35.90;;
40204;SDS011;26963;42.666;23.366;2023-12-29T05:11:53;55.85;;;39.65;;
40204;SDS011;26963;42.666;23.366;2023-12-29T05:14:18;50.05;;;33.92;;
40204;SDS011;26963;42.666;23.366;2023-12-29T05:16:44;42.70;;;29.95;;
40204;SDS011;26963;42.666;23.366;2023-12-29T05:19:09;44.30;;;30.52;;
40204;SDS011;26963;42.666;23.366;2023-12-29T05:21:35;46.70;;;31.55;;
40204;SDS011;26963;42.666;23.366;2023-12-29T05:24:01;46.67;;;33.22;;
40204;SDS011;26963;42.666;23.366;2023-12-29T05:26:26;49.05;;;33.92;;
40204;SDS011;26963;42.666;23.366;2023-12-29T05:28:52;48.30;;;31.80;;
40204;SDS011;26963;42.666;23.366;2023-12-29T05:31:17;52.10;;;35.13;;
40204;SDS011;26963;42.666;23.366;2023-12-29T05:33:44;64.20;;;40.22;;
40204;SDS011;26963;42.666;23.366;2023-12-29T05:36:10;62.77;;;42.13;;
40204;SDS011;26963;42.666;23.366;2023-12-29T05:38:36;63.65;;;45.15;;
40204;SDS011;26963;42.666;23.366;2023-12-29T05:41:03;68.85;;;46.67;;
40204;SDS011;26963;42.666;23.366;2023-12-29T05:43:33;77.07;;;46.23;;
40204;SDS011;26963;42.666;23.366;2023-12-29T05:46:00;68.07;;;44.80;;
40204;SDS011;26963;42.666;23.366;2023-12-29T05:48:26;65.88;;;43.28;;
40204;SDS011;26963;42.666;23.366;2023-12-29T05:50:52;56.75;;;40.30;;
40204;SDS011;26963;42.666;23.366;2023-12-29T05:53:17;63.70;;;41.13;;
40204;SDS011;26963;42.666;23.366;2023-12-29T05:55:43;57.10;;;39.83;;
40204;SDS011;26963;42.666;23.366;2023-12-29T05:58:09;53.28;;;37.28;;
40204;SDS011;26963;42.666;23.366;2023-12-29T06:00:36;53.92;;;38.22;;
40204;SDS011;26963;42.666;23.366;2023-12-29T06:03:02;59.30;;;39.80;;
40204;SDS011;26963;42.666;23.366;2023-12-29T06:05:29;53.70;;;36.92;;
40204;SDS011;26963;42.666;23.366;2023-12-29T06:07:55;55.22;;;37.50;;
40204;SDS011;26963;42.666;23.366;2023-12-29T06:10:21;52.08;;;36.03;;
40204;SDS011;26963;42.666;23.366;2023-12-29T06:12:47;54.47;;;36.58;;
40204;SDS011;26963;42.666;23.366;2023-12-29T06:15:13;55.97;;;38.78;;
40204;SDS011;26963;42.666;23.366;2023-12-29T06:17:41;59.15;;;40.92;;
40204;SDS011;26963;42.666;23.366;2023-12-29T06:20:07;89.13;;;58.38;;
40204;SDS011;26963;42.666;23.366;2023-12-29T06:22:38;56.72;;;38.42;;
40204;SDS011;26963;42.666;23.366;2023-12-29T06:25:05;48.60;;;31.95;;
40204;SDS011;26963;42.666;23.366;2023-12-29T06:27:33;51.78;;;36.05;;
40204;SDS011;26963;42.666;23.366;2023-12-29T06:30:03;53.65;;;37.50;;
40204;SDS011;26963;42.666;23.366;2023-12-29T06:32:32;65.28;;;42.75;;
40204;SDS011;26963;42.666;23.366;2023-12-29T06:34:58;59.90;;;40.55;;
40204;SDS011;26963;42.666;23.366;2023-12-29T06:37:23;52.08;;;36.30;;
40204;SDS011;26963;42.666;23.366;2023-12-29T06:39:49;44.45;;;31.48;;
40204;SDS011;26963;42.666;23.366;2023-12-29T06:42:15;49.53;;;34.53;;
40204;SDS011;26963;42.666;23.366;2023-12-29T06:44:40;50.28;;;35.95;;
40204;SDS011;26963;42.666;23.366;2023-12-29T06:47:06;47.17;;;33.13;;
40204;SDS011;26963;42.666;23.366;2023-12-29T06:49:35;56.35;;;34.90;;
40204;SDS011;26963;42.666;23.366;2023-12-29T06:52:01;47.38;;;34.08;;
40204;SDS011;26963;42.666;23.366;2023-12-29T06:54:26;41.22;;;28.77;;
40204;SDS011;26963;42.666;23.366;2023-12-29T06:56:52;34.60;;;25.45;;
40204;SDS011;26963;42.666;23.366;2023-12-29T06:59:18;35.80;;;25.95;;
40204;SDS011;26963;42.666;23.366;2023-12-29T07:01:45;46.47;;;32.97;;
40204;SDS011;26963;42.666;23.366;2023-12-29T07:04:11;54.67;;;36.55;;
40204;SDS011;26963;42.666;23.366;2023-12-29T07:06:37;63.65;;;41.15;;
40204;SDS011;26963;42.666;23.366;2023-12-29T07:09:03;63.33;;;45.75;;
40204;SDS011;26963;42.666;23.366;2023-12-29T07:11:29;63.45;;;47.28;;
40204;SDS011;26963;42.666;23.366;2023-12-29T07:13:55;65.75;;;46.33;;
40204;SDS011;26963;42.666;23.366;2023-12-29T07:16:21;49.90;;;34.97;;
40204;SDS011;26963;42.666;23.366;2023-12-29T07:18:46;39.35;;;29.77;;
40204;SDS011;26963;42.666;23.366;2023-12-29T07:21:12;56.65;;;39.25;;
40204;SDS011;26963;42.666;23.366;2023-12-29T07:23:39;60.50;;;44.22;;
40204;SDS011;26963;42.666;23.366;2023-12-29T07:26:06;60.10;;;43.13;;
40204;SDS011;26963;42.666;23.366;2023-12-29T07:28:32;57.08;;;41.88;;
40204;SDS011;26963;42.666;23.366;2023-12-29T07:30:57;62.88;;;44.33;;
40204;SDS011;26963;42.666;23.366;2023-12-29T07:33:24;61.13;;;45.75;;
40204;SDS011;26963;42.666;23.366;2023-12-29T07:35:50;65.55;;;47.45;;
40204;SDS011;26963;42.666;23.366;2023-12-29T07:38:15;62.40;;;46.10;;
40204;SDS011;26963;42.666;23.366;2023-12-29T07:40:41;64.75;;;45.67;;
40204;SDS011;26963;42.666;23.366;2023-12-29T07:43:07;63.42;;;45.70;;
40204;SDS011;26963;42.666;23.366;2023-12-29T07:45:33;65.40;;;46.33;;
40204;SDS011;26963;42.666;23.366;2023-12-29T07:47:59;65.35;;;44.40;;
40204;SDS011;26963;42.666;23.366;2023-12-29T07:50:25;57.53;;;42.97;;
40204;SDS011;26963;42.666;23.366;2023-12-29T07:52:50;54.97;;;41.85;;
40204;SDS011;26963;42.666;23.366;2023-12-29T07:55:16;59.75;;;42.58;;
40204;SDS011;26963;42.666;23.366;2023-12-29T07:57:42;59.53;;;42.65;;
40204;SDS011;26963;42.666;23.366;2023-12-29T08:00:08;61.50;;;44.95;;
40204;SDS011;26963;42.666;23.366;2023-12-29T08:02:34;60.75;;;47.95;;
40204;SDS011;26963;42.666;23.366;2023-12-29T08:05:00;63.13;;;45.65;;
40204;SDS011;26963;42.666;23.366;2023-12-29T08:07:27;59.35;;;45.83;;
40204;SDS011;26963;42.666;23.366;2023-12-29T08:09:52;66.00;;;49.08;;
40204;SDS011;26963;42.666;23.366;2023-12-29T08:12:18;78.47;;;54.38;;
40204;SDS011;26963;42.666;23.366;2023-12-29T08:14:44;73.88;;;53.47;;
40204;SDS011;26963;42.666;23.366;2023-12-29T08:17:09;61.33;;;44.70;;
40204;SDS011;26963;42.666;23.366;2023-12-29T08:19:36;57.33;;;41.55;;
40204;SDS011;26963;42.666;23.366;2023-12-29T08:22:02;49.65;;;36.55;;
40204;SDS011;26963;42.666;23.366;2023-12-29T08:24:28;52.17;;;37.85;;
40204;SDS011;26963;42.666;23.366;2023-12-29T08:26:53;52.28;;;36.67;;
40204;SDS011;26963;42.666;23.366;2023-12-29T08:29:19;58.28;;;41.50;;
40204;SDS011;26963;42.666;23.366;2023-12-29T08:31:45;50.35;;;37.53;;
40204;SDS011;26963;42.666;23.366;2023-12-29T08:34:11;52.20;;;37.42;;
40204;SDS011;26963;42.666;23.366;2023-12-29T08:36:40;49.58;;;37.80;;
40204;SDS011;26963;42.666;23.366;2023-12-29T08:39:05;53.60;;;38.17;;
40204;SDS011;26963;42.666;23.366;2023-12-29T08:41:31;51.22;;;37.28;;
40204;SDS011;26963;42.666;23.366;2023-12-29T08:43:56;55.47;;;37.83;;
40204;SDS011;26963;42.666;23.366;2023-12-29T08:46:22;53.08;;;37.55;;
40204;SDS011;26963;42.666;23.366;2023-12-29T08:48:48;46.45;;;34.92;;
40204;SDS011;26963;42.666;23.366;2023-12-29T08:51:13;59.63;;;36.75;;
40204;SDS011;26963;42.666;23.366;2023-12-29T08:53:39;56.42;;;34.83;;
40204;SDS011;26963;42.666;23.366;2023-12-29T08:56:04;56.90;;;33.83;;
40204;SDS011;26963;42.666;23.366;2023-12-29T08:58:31;53.97;;;34.75;;
40204;SDS011;26963;42.666;23.366;2023-12-29T09:00:56;49.00;;;34.78;;
40204;SDS011;26963;42.666;23.366;2023-12-29T09:03:22;56.28;;;34.38;;
40204;SDS011;26963;42.666;23.366;2023-12-29T09:05:48;49.50;;;32.72;;
40204;SDS011;26963;42.666;23.366;2023-12-29T09:08:13;63.42;;;33.47;;
40204;SDS011;26963;42.666;23.366;2023-12-29T09:10:39;57.65;;;35.47;;
40204;SDS011;26963;42.666;23.366;2023-12-29T09:13:05;67.97;;;35.28;;
40204;SDS011;26963;42.666;23.366;2023-12-29T09:15:30;53.60;;;33.78;;
40204;SDS011;26963;42.666;23.366;2023-12-29T09:17:56;46.65;;;33.40;;
40204;SDS011;26963;42.666;23.366;2023-12-29T09:20:21;49.53;;;34.00;;
40204;SDS011;26963;42.666;23.366;2023-12-29T09:22:47;47.60;;;32.67;;
40204;SDS011;26963;42.666;23.366;2023-12-29T09:25:13;51.50;;;35.05;;
40204;SDS011;26963;42.666;23.366;2023-12-29T09:27:39;54.15;;;36.53;;
40204;SDS011;26963;42.666;23.366;2023-12-29T09:30:05;49.92;;;36.25;;
40204;SDS011;26963;42.666;23.366;2023-12-29T09:32:31;48.00;;;35.20;;
40204;SDS011;26963;42.666;23.366;2023-12-29T09:34:57;45.55;;;34.80;;
40204;SDS011;26963;42.666;23.366;2023-12-29T09:37:23;51.25;;;35.58;;
40204;SDS011;26963;42.666;23.366;2023-12-29T09:39:49;45.13;;;32.08;;
40204;SDS011;26963;42.666;23.366;2023-12-29T09:42:19;42.85;;;31.60;;
40204;SDS011;26963;42.666;23.366;2023-12-29T09:44:49;39.90;;;31.35;;
40204;SDS011;26963;42.666;23.366;2023-12-29T09:47:18;44.28;;;32.47;;
40204;SDS011;26963;42.666;23.366;2023-12-29T09:49:48;45.33;;;32.63;;
40204;SDS011;26963;42.666;23.366;2023-12-29T09:52:15;43.53;;;32.15;;
40204;SDS011;26963;42.666;23.366;2023-12-29T09:54:42;47.20;;;31.98;;
40204;SDS011;26963;42.666;23.366;2023-12-29T09:57:08;43.75;;;31.88;;
40204;SDS011;26963;42.666;23.366;2023-12-29T09:59:37;45.72;;;31.13;;
40204;SDS011;26963;42.666;23.366;2023-12-29T10:02:05;42.40;;;30.38;;
40204;SDS011;26963;42.666;23.366;2023-12-29T10:04:42;45.28;;;34.70;;
40204;SDS011;26963;42.666;23.366;2023-12-29T10:07:08;48.40;;;35.60;;
40204;SDS011;26963;42.666;23.366;2023-12-29T10:09:39;50.83;;;35.88;;
40204;SDS011;26963;42.666;23.366;2023-12-29T10:12:08;52.05;;;35.90;;
40204;SDS011;26963;42.666;23.366;2023-12-29T10:14:46;46.05;;;36.00;;
40204;SDS011;26963;42.666;23.366;2023-12-29T10:18:00;46.53;;;35.08;;
40204;SDS011;26963;42.666;23.366;2023-12-29T10:20:33;45.35;;;34.78;;
40204;SDS011;26963;42.666;23.366;2023-12-29T10:23:10;50.00;;;36.25;;
40204;SDS011;26963;42.666;23.366;2023-12-29T10:25:38;48.70;;;37.78;;
40204;SDS011;26963;42.666;23.366;2023-12-29T10:28:09;51.42;;;39.85;;
40204;SDS011;26963;42.666;23.366;2023-12-29T10:30:35;52.10;;;36.28;;
40204;SDS011;26963;42.666;23.366;2023-12-29T10:33:03;54.10;;;34.97;;
40204;SDS011;26963;42.666;23.366;2023-12-29T10:35:30;46.78;;;34.88;;
40204;SDS011;26963;42.666;23.366;2023-12-29T10:38:12;45.55;;;33.92;;
40204;SDS011;26963;42.666;23.366;2023-12-29T10:40:39;48.17;;;33.50;;
40204;SDS011;26963;42.666;23.366;2023-12-29T10:43:05;47.92;;;32.72;;
40204;SDS011;26963;42.666;23.366;2023-12-29T10:45:33;48.15;;;33.35;;
40204;SDS011;26963;42.666;23.366;2023-12-29T10:48:00;44.35;;;34.53;;
40204;SDS011;26963;42.666;23.366;2023-12-29T10:50:26;46.53;;;33.53;;
40204;SDS011;26963;42.666;23.366;2023-12-29T10:53:10;46.97;;;33.53;;
40204;SDS011;26963;42.666;23.366;2023-12-29T10:55:37;48.05;;;35.33;;
40204;SDS011;26963;42.666;23.366;2023-12-29T10:58:03;47.90;;;34.20;;
40204;SDS011;26963;42.666;23.366;2023-12-29T11:00:31;44.65;;;34.22;;
40204;SDS011;26963;42.666;23.366;2023-12-29T11:03:00;43.92;;;33.17;;
40204;SDS011;26963;42.666;23.366;2023-12-29T11:05:26;42.85;;;32.42;;
40204;SDS011;26963;42.666;23.366;2023-12-29T11:07:53;40.20;;;31.40;;
40204;SDS011;26963;42.666;23.366;2023-12-29T11:10:20;43.22;;;32.42;;
40204;SDS011;26963;42.666;23.366;2023-12-29T11:12:47;45.60;;;33.95;;
40204;SDS011;26963;42.666;23.366;2023-12-29T11:15:14;52.13;;;35.53;;
40204;SDS011;26963;42.666;23.366;2023-12-29T11:17:44;48.25;;;34.95;;
40204;SDS011;26963;42.666;23.366;2023-12-29T11:20:14;45.00;;;34.17;;
40204;SDS011;26963;42.666;23.366;2023-12-29T11:22:42;46.75;;;33.35;;
40204;SDS011;26963;42.666;23.366;2023-12-29T11:25:09;44.17;;;33.30;;
40204;SDS011;26963;42.666;23.366;2023-12-29T11:27:35;48.80;;;32.88;;
40204;SDS011;26963;42.666;23.366;2023-12-29T11:30:02;39.38;;;31.83;;
40204;SDS011;26963;42.666;23.366;2023-12-29T11:41:05;46.22;;;33.40;;
40204;SDS011;26963;42.666;23.366;2023-12-29T11:43:55;45.50;;;34.03;;
40204;SDS011;26963;42.666;23.366;2023-12-29T11:46:38;41.03;;;33.25;;
40204;SDS011;26963;42.666;23.366;2023-12-29T11:49:08;45.60;;;32.92;;
40204;SDS011;26963;42.666;23.366;2023-12-29T11:51:40;46.78;;;35.03;;
40204;SDS011;26963;42.666;23.366;2023-12-29T11:54:10;45.22;;;34.22;;
40204;SDS011;26963;42.666;23.366;2023-12-29T11:56:49;49.22;;;34.08;;
40204;SDS011;26963;42.666;23.366;2023-12-29T12:01:51;48.15;;;35.03;;
40204;SDS011;26963;42.666;23.366;2023-12-29T12:07:06;46.15;;;32.85;;
40204;SDS011;26963;42.666;23.366;2023-12-29T12:09:34;42.35;;;32.65;;
40204;SDS011;26963;42.666;23.366;2023-12-29T12:12:04;43.72;;;32.22;;
40204;SDS011;26963;42.666;23.366;2023-12-29T12:17:28;43.25;;;31.98;;
40204;SDS011;26963;42.666;23.366;2023-12-29T12:20:02;41.03;;;31.45;;
40204;SDS011;26963;42.666;23.366;2023-12-29T12:22:31;42.97;;;31.80;;
40204;SDS011;26963;42.666;23.366;2023-12-29T12:24:58;42.45;;;31.83;;
40204;SDS011;26963;42.666;23.366;2023-12-29T12:27:28;45.33;;;33.38;;
40204;SDS011;26963;42.666;23.366;2023-12-29T12:29:58;46.58;;;32.65;;
40204;SDS011;26963;42.666;23.366;2023-12-29T12:32:25;42.10;;;32.53;;
40204;SDS011;26963;42.666;23.366;2023-12-29T12:34:51;46.13;;;32.70;;
40204;SDS011;26963;42.666;23.366;2023-12-29T12:37:20;43.83;;;33.15;;
40204;SDS011;26963;42.666;23.366;2023-12-29T12:39:49;48.67;;;34.55;;
40204;SDS011;26963;42.666;23.366;2023-12-29T12:42:15;58.55;;;37.15;;
40204;SDS011;26963;42.666;23.366;2023-12-29T12:44:47;51.35;;;35.25;;
40204;SDS011;26963;42.666;23.366;2023-12-29T12:47:23;43.90;;;33.65;;
40204;SDS011;26963;42.666;23.366;2023-12-29T12:49:52;42.20;;;32.28;;
40204;SDS011;26963;42.666;23.366;2023-12-29T12:52:18;49.65;;;33.25;;
40204;SDS011;26963;42.666;23.366;2023-12-29T12:54:44;45.53;;;32.80;;
40204;SDS011;26963;42.666;23.366;2023-12-29T12:57:10;47.42;;;32.75;;
40204;SDS011;26963;42.666;23.366;2023-12-29T12:59:36;43.88;;;31.05;;
40204;SDS011;26963;42.666;23.366;2023-12-29T13:02:02;45.65;;;32.28;;
40204;SDS011;26963;42.666;23.366;2023-12-29T13:04:28;46.63;;;31.92;;
40204;SDS011;26963;42.666;23.366;2023-12-29T13:06:54;45.08;;;31.23;;
40204;SDS011;26963;42.666;23.366;2023-12-29T13:09:19;48.15;;;33.38;;
40204;SDS011;26963;42.666;23.366;2023-12-29T13:11:45;46.28;;;31.73;;
40204;SDS011;26963;42.666;23.366;2023-12-29T13:14:21;44.88;;;31.60;;
40204;SDS011;26963;42.666;23.366;2023-12-29T13:16:47;45.13;;;33.03;;
40204;SDS011;26963;42.666;23.366;2023-12-29T13:19:20;49.38;;;33.85;;
40204;SDS011;26963;42.666;23.366;2023-12-29T13:21:52;46.15;;;33.03;;
40204;SDS011;26963;42.666;23.366;2023-12-29T13:24:20;43.38;;;31.88;;
40204;SDS011;26963;42.666;23.366;2023-12-29T13:26:47;48.75;;;31.73;;
40204;SDS011;26963;42.666;23.366;2023-12-29T13:29:21;42.85;;;31.42;;
40204;SDS011;26963;42.666;23.366;2023-12-29T13:31:49;46.30;;;30.95;;
40204;SDS011;26963;42.666;23.366;2023-12-29T13:34:19;46.30;;;32.15;;
40204;SDS011;26963;42.666;23.366;2023-12-29T13:36:54;43.50;;;30.67;;
40204;SDS011;26963;42.666;23.366;2023-12-29T13:42:01;66.10;;;47.28;;
40204;SDS011;26963;42.666;23.366;2023-12-29T13:44:30;40.22;;;27.67;;
40204;SDS011;26963;42.666;23.366;2023-12-29T13:46:58;37.40;;;23.40;;
40204;SDS011;26963;42.666;23.366;2023-12-29T13:49:24;33.20;;;21.80;;
40204;SDS011;26963;42.666;23.366;2023-12-29T13:51:49;37.28;;;24.42;;
40204;SDS011;26963;42.666;23.366;2023-12-29T13:54:15;37.58;;;24.48;;
40204;SDS011;26963;42.666;23.366;2023-12-29T13:56:54;40.33;;;24.75;;
40204;SDS011;26963;42.666;23.366;2023-12-29T13:59:30;36.03;;;24.63;;
40204;SDS011;26963;42.666;23.366;2023-12-29T14:01:59;37.70;;;24.95;;
40204;SDS011;26963;42.666;23.366;2023-12-29T14:04:28;36.38;;;23.23;;
40204;SDS011;26963;42.666;23.366;2023-12-29T14:06:54;37.30;;;23.85;;
40204;SDS011;26963;42.666;23.366;2023-12-29T14:11:51;29.70;;;16.48;;
40204;SDS011;26963;42.666;23.366;2023-12-29T14:14:22;23.48;;;15.75;;
40204;SDS011;26963;42.666;23.366;2023-12-29T14:16:53;27.55;;;15.80;;
40204;SDS011;26963;42.666;23.366;2023-12-29T14:19:19;26.60;;;15.52;;
40204;SDS011;26963;42.666;23.366;2023-12-29T14:21:52;23.17;;;15.13;;
40204;SDS011;26963;42.666;23.366;2023-12-29T14:24:19;23.40;;;13.52;;
40204;SDS011;26963;42.666;23.366;2023-12-29T14:29:17;26.17;;;18.25;;
40204;SDS011;26963;42.666;23.366;2023-12-29T14:31:44;27.35;;;16.63;;
40204;SDS011;26963;42.666;23.366;2023-12-29T14:34:11;24.70;;;13.27;;
40204;SDS011;26963;42.666;23.366;2023-12-29T14:36:41;26.20;;;12.77;;